createdAt,value
2019-03-21T00:03:01.115Z,191.34
2019-03-21T00:08:10.095Z,230.91
2019-03-21T00:13:19.094Z,198.91
2019-03-21T00:18:28.086Z,244.80
2019-03-21T00:23:37.063Z,267.07
2019-03-21T00:28:46.070Z,278.17
2019-03-21T00:33:55.138Z,304.81
2019-03-21T00:39:04.202Z,333.34
2019-03-21T00:44:18.224Z,332.04
2019-03-21T00:49:21.685Z,324.25
2019-03-21T00:54:30.654Z,313.36
2019-03-21T00:59:39.649Z,320.69
2019-03-21T01:04:48.619Z,312.93
2019-03-21T01:09:57.830Z,325.66
2019-03-21T01:15:06.787Z,376.82
2019-03-21T01:20:15.763Z,285.24
2019-03-21T01:25:24.694Z,286.93
2019-03-21T01:30:33.739Z,252.34
2019-03-21T01:35:42.693Z,274.65
2019-03-21T01:40:51.701Z,271.92
2019-03-21T01:46:00.650Z,329.40
2019-03-21T01:51:09.657Z,263.97
2019-03-21T01:56:18.611Z,266.98
2019-03-21T02:01:27.589Z,252.96
2019-03-21T02:06:36.594Z,205.54
2019-03-21T02:11:45.598Z,157.86
2019-03-21T02:16:54.550Z,128.43
2019-03-21T02:22:03.561Z,95.09
2019-03-21T02:27:12.558Z,103.38
2019-03-21T02:32:21.583Z,63.70
2019-03-21T02:37:30.538Z,61.24
2019-03-21T02:42:39.597Z,59.22
2019-03-21T02:47:48.650Z,69.72
2019-03-21T02:52:57.693Z,62.27
2019-03-21T02:58:06.631Z,65.24
2019-03-21T03:03:15.702Z,57.43
2019-03-21T03:08:24.696Z,56.62
2019-03-21T03:13:33.723Z,59.61
2019-03-21T03:18:42.670Z,59.37
2019-03-21T03:23:51.680Z,59.10
2019-03-21T03:29:00.668Z,52.22
2019-03-21T03:34:09.742Z,58.30
2019-03-21T03:39:18.734Z,40.12
2019-03-21T03:44:27.794Z,41.89
2019-03-21T03:49:36.783Z,52.98
2019-03-21T03:54:45.829Z,48.86
2019-03-21T03:59:54.820Z,37.70
2019-03-21T04:05:03.822Z,44.82
2019-03-21T04:10:12.802Z,61.58
2019-03-21T04:15:21.844Z,71.77
2019-03-21T04:20:30.822Z,68.67
2019-03-21T04:25:39.999Z,76.90
2019-03-21T04:30:48.987Z,71.75
2019-03-21T04:35:58.015Z,60.12
2019-03-21T04:41:07.010Z,64.10
2019-03-21T04:46:16.024Z,73.83
2019-03-21T04:51:24.949Z,49.55
2019-03-21T04:56:34.003Z,53.84
2019-03-21T05:01:42.990Z,61.98
2019-03-21T05:06:52.001Z,83.13
2019-03-21T05:12:00.975Z,89.89
2019-03-21T05:17:09.986Z,89.21
2019-03-21T05:22:18.960Z,95.43
2019-03-21T05:27:28.023Z,93.13
2019-03-21T05:32:36.982Z,84.69
2019-03-21T05:37:46.034Z,91.09
2019-03-21T05:42:55.021Z,87.39
2019-03-21T05:48:04.039Z,108.27
2019-03-21T05:53:12.994Z,118.90
2019-03-21T05:58:21.995Z,103.91
2019-03-21T06:03:31.030Z,135.25
2019-03-21T06:08:40.042Z,100.29
2019-03-21T06:13:49.062Z,116.77
2019-03-21T06:18:58.114Z,125.70
2019-03-21T06:24:07.094Z,137.79
2019-03-21T06:29:16.188Z,128.22
2019-03-21T06:34:25.170Z,132.02
2019-03-21T06:39:34.174Z,105.94
2019-03-21T06:44:43.166Z,134.79
2019-03-21T06:49:52.234Z,89.56
2019-03-21T06:55:01.223Z,112.21
2019-03-21T07:00:10.266Z,120.08
2019-03-21T07:05:19.254Z,130.67
2019-03-21T07:10:28.303Z,141.92
2019-03-21T07:15:37.302Z,130.17
2019-03-21T07:20:46.398Z,164.85
2019-03-21T07:25:55.379Z,155.82
2019-03-21T07:31:04.382Z,131.10
2019-03-21T07:36:13.363Z,134.23
2019-03-21T07:41:22.374Z,125.48
2019-03-21T07:46:32.139Z,120.22
2019-03-21T07:51:39.876Z,114.97
2019-03-21T07:56:48.865Z,90.89
2019-03-21T08:01:57.869Z,88.92
2019-03-21T08:07:06.850Z,81.91
2019-03-21T08:12:15.875Z,128.57
2019-03-21T08:17:24.858Z,156.94
2019-03-21T08:22:33.935Z,231.26
2019-03-21T08:27:42.915Z,268.33
2019-03-21T08:32:51.890Z,298.65
2019-03-21T08:38:00.874Z,298.21
2019-03-21T08:43:09.902Z,288.08
2019-03-21T08:48:18.892Z,250.00
2019-03-21T08:53:27.844Z,218.31
2019-03-21T08:58:36.807Z,210.16
2019-03-21T09:03:45.886Z,152.31
2019-03-21T09:08:54.806Z,129.90
2019-03-21T09:14:03.878Z,137.03
2019-03-21T09:19:12.841Z,155.09
2019-03-21T09:24:21.804Z,141.81
2019-03-21T09:29:30.748Z,173.34
2019-03-21T09:34:40.136Z,182.76
2019-03-21T09:39:49.067Z,233.19
2019-03-21T09:44:58.078Z,167.54
2019-03-21T09:50:07.035Z,116.76
2019-03-21T09:55:15.998Z,83.75
2019-03-21T10:00:24.988Z,54.52
2019-03-21T10:05:33.994Z,51.34
2019-03-21T10:10:42.927Z,46.31
2019-03-21T10:15:52.206Z,38.16
2019-03-21T10:21:01.126Z,281.11
2019-03-21T10:26:10.090Z,118.46
2019-03-21T10:31:19.038Z,127.04
2019-03-21T10:36:28.042Z,229.15
2019-03-21T10:41:37.025Z,239.53
2019-03-21T10:46:45.982Z,234.67
2019-03-21T10:51:55.461Z,167.02
2019-03-21T10:57:03.424Z,210.25
2019-03-21T11:02:12.362Z,105.53
2019-03-21T11:07:21.410Z,122.18
2019-03-21T11:12:30.346Z,177.20
2019-03-21T11:17:39.341Z,221.04
2019-03-21T11:22:48.285Z,164.20
2019-03-21T11:27:57.372Z,144.44
2019-03-21T11:33:06.338Z,63.91
2019-03-21T11:38:15.375Z,97.75
2019-03-21T11:43:24.324Z,80.19
2019-03-21T11:48:33.392Z,78.72
2019-03-21T11:53:42.368Z,66.42
2019-03-21T11:58:51.410Z,78.64
2019-03-21T12:04:00.382Z,81.48
2019-03-21T12:09:09.489Z,54.75
2019-03-21T12:14:18.491Z,68.14
2019-03-21T12:19:27.542Z,53.00
2019-03-21T12:24:36.458Z,41.07
2019-03-21T12:29:45.570Z,84.10
2019-03-21T12:34:54.541Z,90.20
2019-03-21T12:40:03.919Z,87.83
2019-03-21T12:45:12.862Z,58.69
2019-03-21T12:50:22.100Z,88.80
2019-03-21T12:55:31.115Z,92.09
2019-03-21T13:00:40.168Z,78.73
2019-03-21T13:05:49.186Z,88.96
2019-03-21T13:11:00.704Z,85.61
2019-03-21T13:16:06.706Z,84.11
2019-03-21T13:21:15.825Z,321.44
2019-03-21T13:26:24.822Z,119.11
2019-03-21T13:31:33.897Z,294.74
2019-03-21T13:36:42.891Z,178.36
2019-03-21T13:41:51.938Z,47.36
2019-03-21T13:47:00.935Z,764.60
2019-03-21T13:52:09.993Z,961.32
2019-03-21T13:57:18.966Z,965.78
2019-03-21T14:02:28.040Z,962.58
2019-03-21T14:07:37.029Z,970.14
2019-03-21T14:12:46.087Z,968.38
2019-03-21T14:17:55.050Z,968.74
2019-03-21T14:23:16.062Z,969.44
2019-03-21T14:28:12.657Z,969.79
2019-03-21T14:33:21.739Z,972.77
2019-03-21T14:38:30.722Z,968.38
2019-03-21T14:43:39.676Z,970.48
2019-03-21T14:48:48.662Z,974.01
2019-03-21T14:53:57.658Z,969.09
2019-03-21T14:59:06.666Z,974.01
2019-03-21T15:04:15.627Z,971.15
2019-03-21T15:09:24.634Z,971.81
2019-03-21T15:14:33.710Z,976.07
2019-03-21T15:19:42.703Z,966.54
2019-03-21T15:24:51.761Z,999.90
2019-03-21T15:30:00.818Z,999.90
2019-03-21T15:35:09.806Z,972.77
2019-03-21T15:40:18.792Z,975.21
2019-03-21T15:45:27.744Z,970.82
2019-03-21T15:50:38.060Z,999.90
2019-03-21T15:55:45.246Z,974.32
2019-03-21T16:00:54.239Z,977.18
2019-03-21T16:06:03.265Z,975.21
2019-03-21T16:11:12.188Z,971.15
2019-03-21T16:16:21.195Z,965.00
2019-03-21T16:21:30.127Z,999.90
2019-03-21T16:26:39.131Z,956.38
2019-03-21T16:31:48.073Z,953.48
2019-03-21T16:36:57.078Z,952.98
2019-03-21T16:42:06.014Z,999.90
2019-03-21T16:47:15.206Z,949.35
2019-03-21T16:52:24.167Z,940.19
2019-03-21T16:57:33.328Z,934.47
2019-03-21T17:02:42.269Z,828.45
2019-03-21T17:07:51.322Z,449.16
2019-03-21T17:13:04.425Z,67.90
2019-03-21T17:18:08.839Z,24.14
2019-03-21T17:23:17.790Z,53.10
2019-03-21T17:28:26.775Z,85.49
2019-03-21T17:33:35.730Z,107.68
2019-03-21T17:38:44.663Z,77.16
2019-03-21T17:43:53.621Z,35.28
2019-03-21T17:49:02.572Z,30.75
2019-03-21T17:54:11.559Z,55.53
2019-03-21T17:59:20.582Z,103.77
2019-03-21T18:04:29.522Z,115.06
2019-03-21T18:09:38.549Z,112.52
2019-03-21T18:14:47.465Z,105.29
2019-03-21T18:19:56.446Z,93.57
2019-03-21T18:25:05.439Z,76.31
2019-03-21T18:30:14.459Z,57.25
2019-03-21T18:35:23.455Z,36.97
2019-03-21T18:40:38.930Z,30.80
2019-03-21T18:45:37.925Z,28.10
2019-03-21T18:50:47.010Z,28.27
2019-03-21T18:55:55.990Z,29.93
2019-03-21T19:01:04.990Z,25.73
2019-03-21T19:06:13.978Z,28.62
2019-03-21T19:11:22.970Z,26.74
2019-03-21T19:16:32.120Z,32.43
2019-03-21T19:21:40.958Z,28.32
2019-03-21T19:26:49.930Z,40.63
2019-03-21T19:31:58.906Z,37.34
2019-03-21T19:37:07.882Z,39.69
2019-03-21T19:42:16.906Z,46.85
2019-03-21T19:47:30.280Z,53.00
2019-03-21T19:52:34.411Z,55.06
2019-03-21T19:57:43.417Z,55.92
2019-03-21T20:02:52.406Z,65.42
2019-03-21T20:08:01.381Z,74.00
2019-03-21T20:13:10.472Z,86.70
2019-03-21T20:18:19.478Z,96.46
2019-03-21T20:23:28.475Z,91.92
2019-03-21T20:28:37.454Z,97.11
2019-03-21T20:33:46.542Z,112.22
2019-03-21T20:38:55.518Z,78.51
2019-03-21T20:44:14.760Z,66.90
2019-03-21T20:49:13.126Z,66.30
2019-03-21T20:54:22.126Z,76.31
2019-03-21T20:59:31.136Z,61.05
2019-03-21T21:04:40.171Z,67.74
2019-03-21T21:09:49.103Z,88.68
2019-03-21T21:14:58.106Z,64.33
2019-03-21T21:20:07.083Z,44.42
2019-03-21T21:25:16.128Z,31.97
2019-03-21T21:30:25.139Z,20.89
2019-03-21T21:35:34.227Z,16.60
2019-03-21T21:40:43.235Z,18.04
2019-03-21T21:45:52.233Z,21.71
2019-03-21T21:51:01.236Z,57.37
2019-03-21T21:56:17.668Z,31.60
2019-03-21T22:01:18.794Z,22.43
2019-03-21T22:06:27.814Z,29.83
2019-03-21T22:11:36.798Z,31.18
2019-03-21T22:16:45.810Z,20.09
2019-03-21T22:21:54.787Z,72.47
2019-03-21T22:27:03.849Z,55.08
2019-03-21T22:32:12.818Z,51.10
2019-03-21T22:37:21.971Z,33.50
2019-03-21T22:42:30.916Z,64.70
2019-03-21T22:47:39.986Z,69.96
2019-03-21T22:52:48.981Z,62.30
2019-03-21T22:57:57.974Z,63.13
2019-03-21T23:03:06.907Z,69.75
2019-03-21T23:08:15.959Z,63.47
2019-03-21T23:13:24.950Z,64.84
2019-03-21T23:18:33.946Z,43.62
2019-03-21T23:23:42.890Z,51.84
2019-03-21T23:28:51.992Z,28.04
2019-03-21T23:34:00.982Z,53.23
2019-03-21T23:39:09.998Z,65.59
2019-03-21T23:44:18.919Z,36.67
2019-03-21T23:49:27.983Z,40.27
2019-03-21T23:54:36.966Z,40.78
2019-03-21T23:59:46.002Z,53.99
